Time;durP1;ratioP1;P1;durP2;ratioP2;P2;SDS_P1;SDS_P2;PMS_P1;PMS_P2;Temp;Humidity;BMP_temperature;BMP_pressure;BME280_temperature;BME280_humidity;BME280_pressure;Samples;Min_cycle;Max_cycle;Signal;HPM_P1;HPM_P2
2022/04/09 00:00:30;;;;;;;4.05;1.30;;;23.50;99.90;;;;;;4972309;28;20026;-77
2022/04/09 00:02:58;;;;;;;5.43;0.82;;;23.90;99.90;;;;;;4974948;28;20101;-76
2022/04/09 00:05:26;;;;;;;2.90;0.80;;;24.20;99.90;;;;;;4984001;28;20507;-77
2022/04/09 00:07:54;;;;;;;3.05;0.52;;;24.30;99.90;;;;;;4978235;28;20065;-77
2022/04/09 00:10:26;;;;;;;4.57;1.38;;;24.30;99.90;;;;;;4991793;28;20150;-76
2022/04/09 00:12:54;;;;;;;2.45;0.50;;;24.30;99.90;;;;;;4984460;28;20038;-76
2022/04/09 00:15:21;;;;;;;3.15;0.75;;;24.20;99.90;;;;;;4972089;28;20027;-77
2022/04/09 00:17:48;;;;;;;3.83;0.57;;;23.90;99.90;;;;;;4975190;28;20109;-78
2022/04/09 00:23:40;;;;;;;3.80;0.68;;;24.30;99.90;;;;;;4987459;28;20110;-78
2022/04/09 00:26:07;;;;;;;3.72;0.77;;;24.70;99.90;;;;;;4973392;28;20047;-77
2022/04/09 00:28:35;;;;;;;3.40;0.63;;;25.10;99.90;;;;;;4985051;28;20113;-76
2022/04/09 00:31:03;;;;;;;5.00;0.70;;;25.40;99.90;;;;;;4990189;28;20081;-76
2022/04/09 00:33:31;;;;;;;4.07;1.23;;;25.50;99.90;;;;;;4983582;28;20066;-77
2022/04/09 00:35:58;;;;;;;3.17;0.50;;;25.70;99.90;;;;;;4971948;28;20473;-77
2022/04/09 00:38:28;;;;;;;2.42;0.40;;;25.60;99.90;;;;;;4973558;28;20050;-78
2022/04/09 00:40:56;;;;;;;2.40;0.47;;;26.10;99.90;;;;;;4979945;28;20500;-77
2022/04/09 00:43:23;;;;;;;3.45;1.08;;;26.90;99.90;;;;;;4977972;28;20054;-77
2022/04/09 00:45:52;;;;;;;1.73;0.60;;;27.40;99.90;;;;;;4978125;28;20069;-78
2022/04/09 00:48:22;;;;;;;1.55;0.88;;;27.10;99.90;;;;;;4975045;28;20054;-77
2022/04/09 00:50:50;;;;;;;4.10;0.88;;;26.50;99.90;;;;;;4973128;28;20029;-78
2022/04/09 00:53:19;;;;;;;1.27;0.32;;;25.80;99.90;;;;;;4972451;28;20026;-78
2022/04/09 00:58:39;;;;;;;7.43;1.13;;;24.50;99.90;;;;;;4975930;28;20090;-76
2022/04/09 01:01:08;;;;;;;5.60;0.88;;;23.80;99.90;;;;;;4976465;28;20031;-77
2022/04/09 01:03:36;;;;;;;1.13;0.60;;;23.40;99.90;;;;;;4983122;28;20448;-78
2022/04/09 01:06:05;;;;;;;3.92;0.60;;;23.20;99.90;;;;;;4975476;28;20035;-78
2022/04/09 01:08:33;;;;;;;3.72;0.70;;;23.10;99.90;;;;;;4975798;28;20524;-78
2022/04/09 01:11:01;;;;;;;6.95;0.70;;;22.80;99.90;;;;;;4977123;28;20038;-78
2022/04/09 01:13:29;;;;;;;1.35;0.40;;;22.30;99.90;;;;;;4972479;28;20030;-76
2022/04/09 01:15:56;;;;;;;3.72;1.00;;;21.90;99.90;;;;;;4986643;28;20031;-77
2022/04/09 01:18:24;;;;;;;4.13;0.95;;;21.50;99.90;;;;;;4975284;28;20027;-76
2022/04/09 01:20:56;;;;;;;4.00;0.75;;;21.40;99.90;;;;;;4970917;28;20034;-77
2022/04/09 01:23:24;;;;;;;3.35;0.70;;;21.20;99.90;;;;;;4978597;28;20038;-77
2022/04/09 01:25:51;;;;;;;2.15;0.52;;;21.00;99.90;;;;;;4971508;28;20173;-76
2022/04/09 01:28:20;;;;;;;5.97;0.80;;;21.00;99.90;;;;;;4977520;28;20042;-76
2022/04/09 01:30:47;;;;;;;3.65;0.82;;;21.40;99.90;;;;;;4982885;28;20117;-77
2022/04/09 01:33:16;;;;;;;1.95;0.60;;;22.40;99.90;;;;;;4979021;28;20053;-77
2022/04/09 01:35:44;;;;;;;1.80;0.50;;;23.30;99.90;;;;;;4973938;28;20401;-77
2022/04/09 01:38:12;;;;;;;3.10;0.45;;;24.10;99.90;;;;;;4981184;28;20032;-75
2022/04/09 01:40:40;;;;;;;3.03;1.10;;;24.70;99.90;;;;;;4984810;28;20046;-75
2022/04/09 01:43:08;;;;;;;2.70;0.82;;;24.90;99.90;;;;;;5003971;28;20025;-77
2022/04/09 01:45:36;;;;;;;2.05;0.30;;;24.90;99.90;;;;;;4993291;28;20049;-78
2022/04/09 01:48:04;;;;;;;1.13;0.40;;;24.90;99.90;;;;;;4978035;28;20047;-78
2022/04/09 01:50:32;;;;;;;3.75;0.35;;;24.90;99.90;;;;;;4974667;28;20035;-77
2022/04/09 01:53:00;;;;;;;2.38;0.63;;;25.30;99.90;;;;;;4985606;28;20059;-76
2022/04/09 01:55:27;;;;;;;2.42;0.60;;;25.00;99.90;;;;;;4978655;28;20086;-78
2022/04/09 01:57:55;;;;;;;3.67;0.60;;;24.70;99.90;;;;;;4978224;28;20405;-79
2022/04/09 02:00:27;;;;;;;5.47;1.17;;;24.40;99.90;;;;;;4983842;28;20038;-78
2022/04/09 02:02:54;;;;;;;0.98;0.20;;;24.10;99.90;;;;;;4975683;28;20030;-81
2022/04/09 02:05:23;;;;;;;2.88;0.45;;;23.70;99.90;;;;;;4981035;28;20042;-79
2022/04/09 02:07:50;;;;;;;1.73;0.22;;;23.40;99.90;;;;;;4976822;28;20544;-78
2022/04/09 02:10:18;;;;;;;0.82;0.55;;;23.30;99.90;;;;;;4976823;28;20061;-79
2022/04/09 02:12:48;;;;;;;2.75;0.35;;;23.40;99.90;;;;;;4978537;28;20110;-79
2022/04/09 02:15:17;;;;;;;2.00;0.35;;;23.50;99.90;;;;;;4975258;28;20038;-79
2022/04/09 02:17:46;;;;;;;2.90;0.22;;;23.60;99.90;;;;;;4975071;28;20023;-78
2022/04/09 02:20:15;;;;;;;1.95;0.38;;;23.80;99.90;;;;;;4980376;28;20069;-80
2022/04/09 02:22:45;;;;;;;5.40;0.80;;;23.90;99.90;;;;;;4987703;28;20057;-78
2022/04/09 02:25:17;;;;;;;5.00;1.05;;;23.80;99.90;;;;;;4975151;28;20069;-77
2022/04/09 02:27:45;;;;;;;3.10;0.60;;;23.70;99.90;;;;;;4974059;28;20473;-75
2022/04/09 02:30:13;;;;;;;5.07;0.57;;;23.80;99.90;;;;;;4975199;28;20031;-76
2022/04/09 02:32:51;;;;;;;5.47;0.43;;;23.90;99.90;;;;;;4974978;28;20433;-78
2022/04/09 02:35:19;;;;;;;6.53;0.82;;;24.00;99.90;;;;;;4988091;28;20026;-78
2022/04/09 02:37:47;;;;;;;2.83;0.47;;;24.20;99.90;;;;;;4977195;28;20125;-76
2022/04/09 02:40:15;;;;;;;2.45;0.20;;;24.20;99.90;;;;;;4974154;28;20572;-78
2022/04/09 02:42:43;;;;;;;1.23;0.30;;;24.20;99.90;;;;;;4981181;28;20069;-78
2022/04/09 02:45:14;;;;;;;2.40;0.25;;;24.10;99.90;;;;;;4973445;28;20125;-78
2022/04/09 02:47:43;;;;;;;3.92;1.17;;;24.00;99.90;;;;;;4972373;28;20089;-78
2022/04/09 02:50:12;;;;;;;2.63;0.30;;;24.20;99.90;;;;;;4974720;28;20062;-80
2022/04/09 02:52:41;;;;;;;2.20;0.30;;;24.40;99.90;;;;;;4975734;28;20433;-78
2022/04/09 02:55:09;;;;;;;2.13;0.30;;;24.90;99.90;;;;;;4974648;28;20029;-79
2022/04/09 02:57:37;;;;;;;1.92;0.65;;;25.60;99.90;;;;;;4972700;28;20469;-78
2022/04/09 03:00:08;;;;;;;2.08;0.30;;;26.30;99.90;;;;;;4970451;28;20038;-79
2022/04/09 03:02:39;;;;;;;1.13;0.25;;;26.50;99.90;;;;;;4973335;28;20039;-79
2022/04/09 03:05:07;;;;;;;1.08;0.50;;;26.00;99.90;;;;;;4973186;28;20047;-80
2022/04/09 03:07:34;;;;;;;2.40;0.30;;;25.30;99.90;;;;;;4972473;28;20023;-77
2022/04/09 03:10:02;;;;;;;1.70;0.30;;;24.80;99.90;;;;;;4970722;28;20136;-78
2022/04/09 03:12:30;;;;;;;2.50;0.70;;;24.40;99.90;;;;;;4975516;28;20080;-79
2022/04/09 03:14:57;;;;;;;1.48;0.40;;;24.10;99.90;;;;;;4969788;28;20034;-78
2022/04/09 03:17:24;;;;;;;2.10;0.50;;;23.80;99.90;;;;;;4971273;28;20022;-79
2022/04/09 03:19:53;;;;;;;3.75;0.63;;;23.40;99.90;;;;;;4976443;28;20397;-78
2022/04/09 03:22:21;;;;;;;4.32;0.68;;;22.90;99.90;;;;;;4971943;28;20073;-77
2022/04/09 03:24:49;;;;;;;4.05;0.50;;;22.10;99.90;;;;;;4972270;28;20101;-76
2022/04/09 03:27:16;;;;;;;6.05;1.92;;;21.50;99.90;;;;;;4971458;28;20034;-79
2022/04/09 03:29:43;;;;;;;4.38;0.77;;;21.20;99.90;;;;;;4970200;28;20022;-77
2022/04/09 03:32:12;;;;;;;3.40;0.73;;;21.00;99.90;;;;;;4971754;28;20415;-79
2022/04/09 03:34:39;;;;;;;3.58;0.68;;;20.90;99.90;;;;;;4972259;28;20050;-79
2022/04/09 03:37:07;;;;;;;4.00;0.38;;;20.90;99.90;;;;;;4976377;28;20042;-78
2022/04/09 03:39:35;;;;;;;1.85;0.60;;;21.00;99.90;;;;;;4971166;28;20026;-78
2022/04/09 03:42:04;;;;;;;2.00;0.20;;;21.10;99.90;;;;;;4970023;28;20030;-79
2022/04/09 03:44:31;;;;;;;2.35;0.52;;;21.20;99.90;;;;;;4973158;28;20485;-76
2022/04/09 03:47:03;;;;;;;3.40;0.55;;;21.30;99.90;;;;;;4969447;28;20097;-76
2022/04/09 03:49:33;;;;;;;3.40;0.30;;;21.50;99.90;;;;;;4971333;28;20188;-77
2022/04/09 03:52:01;;;;;;;0.70;0.40;;;21.70;99.90;;;;;;4973072;28;20540;-77
2022/04/09 03:54:30;;;;;;;1.08;0.40;;;21.70;99.90;;;;;;4971357;28;20121;-78
2022/04/09 03:56:58;;;;;;;0.93;0.20;;;21.80;99.90;;;;;;4976179;28;20092;-79
2022/04/09 03:59:25;;;;;;;0.80;0.47;;;22.10;99.90;;;;;;4970422;28;20031;-77
2022/04/09 04:01:52;;;;;;;4.28;0.50;;;22.30;99.90;;;;;;4973056;28;20113;-77
2022/04/09 04:04:21;;;;;;;0.95;0.17;;;22.40;99.90;;;;;;4967134;28;20111;-77
2022/04/09 04:06:48;;;;;;;2.45;1.17;;;22.50;99.90;;;;;;4973712;28;20038;-77
2022/04/09 04:09:16;;;;;;;2.08;0.20;;;22.60;99.90;;;;;;4980433;28;20034;-76
2022/04/09 04:11:44;;;;;;;2.92;0.25;;;22.80;99.90;;;;;;4988416;28;20022;-77
2022/04/09 04:14:12;;;;;;;3.40;0.30;;;22.90;99.90;;;;;;4970712;28;20027;-77
2022/04/09 04:16:40;;;;;;;1.27;0.10;;;23.00;99.90;;;;;;4971858;28;20062;-78
2022/04/09 04:19:08;;;;;;;0.50;0.22;;;22.80;99.90;;;;;;4977276;28;20022;-78
2022/04/09 04:21:38;;;;;;;1.80;0.40;;;22.80;99.90;;;;;;4972305;28;20026;-78
2022/04/09 04:24:06;;;;;;;3.35;0.82;;;22.80;99.90;;;;;;4972578;28;20038;-78
2022/04/09 04:26:33;;;;;;;1.58;0.50;;;22.80;99.90;;;;;;4968957;28;20034;-80
2022/04/09 04:29:05;;;;;;;1.88;0.40;;;22.70;99.90;;;;;;4969999;28;20054;-79
2022/04/09 04:31:32;;;;;;;0.13;0.10;;;22.50;99.90;;;;;;4970692;28;20109;-77
2022/04/09 04:33:59;;;;;;;1.80;0.25;;;22.20;99.90;;;;;;4974195;28;20069;-80
2022/04/09 04:36:27;;;;;;;2.50;0.40;;;22.00;99.90;;;;;;4967287;28;20069;-80
2022/04/09 04:38:54;;;;;;;0.55;0.30;;;21.70;99.90;;;;;;4969560;28;20462;-81
2022/04/09 04:41:21;;;;;;;1.60;0.30;;;21.60;99.90;;;;;;4971354;28;20022;-77
2022/04/09 04:44:00;;;;;;;1.60;0.40;;;21.50;99.90;;;;;;4970440;28;20505;-79
2022/04/09 04:46:27;;;;;;;2.35;1.05;;;21.40;99.90;;;;;;4973465;28;20034;-79
2022/04/09 04:48:55;;;;;;;4.55;0.82;;;21.40;99.90;;;;;;4970368;28;20107;-77
2022/04/09 04:51:22;;;;;;;4.78;0.50;;;21.40;99.90;;;;;;4966599;28;20062;-79
2022/04/09 04:53:49;;;;;;;0.95;0.25;;;21.30;99.90;;;;;;4970713;28;20026;-79
2022/04/09 04:56:17;;;;;;;1.55;0.80;;;21.30;99.90;;;;;;4971682;28;20122;-77
2022/04/09 04:58:44;;;;;;;1.33;0.30;;;21.30;99.90;;;;;;4971763;28;20041;-76
2022/04/09 05:01:11;;;;;;;1.80;0.40;;;21.30;99.90;;;;;;4972583;28;20540;-79
2022/04/09 05:03:39;;;;;;;1.50;0.30;;;21.40;99.90;;;;;;4970168;28;20521;-77
2022/04/09 05:06:07;;;;;;;1.15;0.40;;;21.40;99.90;;;;;;4972967;28;20035;-77
2022/04/09 05:08:35;;;;;;;1.60;0.55;;;21.60;99.90;;;;;;4971509;28;20113;-77
2022/04/09 05:11:02;;;;;;;1.08;0.20;;;21.60;99.90;;;;;;4972317;28;20023;-77
2022/04/09 05:13:30;;;;;;;2.35;0.30;;;21.70;99.90;;;;;;4970120;28;20370;-76
2022/04/09 05:15:58;;;;;;;2.88;0.50;;;21.70;99.90;;;;;;4971853;28;20035;-77
2022/04/09 05:18:26;;;;;;;1.38;0.40;;;21.70;99.90;;;;;;4971662;28;20030;-76
2022/04/09 05:20:54;;;;;;;1.52;0.30;;;21.70;99.90;;;;;;4966455;28;20080;-78
2022/04/09 05:23:21;;;;;;;0.60;0.47;;;21.90;99.90;;;;;;4968352;28;20062;-80
2022/04/09 05:25:49;;;;;;;3.13;0.57;;;22.10;99.90;;;;;;4973235;28;20097;-80
2022/04/09 05:28:16;;;;;;;1.45;0.35;;;22.20;99.90;;;;;;4973992;28;20022;-78
2022/04/09 05:30:44;;;;;;;2.97;0.30;;;22.30;99.90;;;;;;4978132;28;20030;-78
2022/04/09 05:33:12;;;;;;;1.75;0.40;;;22.40;99.90;;;;;;4993388;28;20217;-78
2022/04/09 05:35:39;;;;;;;1.50;0.38;;;22.50;99.90;;;;;;5002432;28;20042;-78
2022/04/09 05:38:09;;;;;;;1.13;0.30;;;22.40;99.90;;;;;;4994699;28;20040;-79
2022/04/09 05:40:36;;;;;;;2.45;0.30;;;22.50;99.90;;;;;;4974252;28;20038;-81
2022/04/09 05:43:04;;;;;;;2.78;0.55;;;22.40;99.90;;;;;;4975474;28;20041;-76
2022/04/09 05:45:32;;;;;;;4.78;0.43;;;22.50;99.90;;;;;;4975757;28;20042;-76
2022/04/09 05:47:59;;;;;;;1.02;0.68;;;22.70;99.90;;;;;;4970947;28;20058;-79
2022/04/09 05:50:26;;;;;;;7.35;6.70;;;23.00;99.90;;;;;;4976337;28;20089;-78
2022/04/09 05:52:54;;;;;;;4.60;3.65;;;23.20;99.90;;;;;;4976778;28;20026;-78
2022/04/09 05:55:21;;;;;;;9.18;1.75;;;23.20;99.90;;;;;;4975118;28;20033;-81
2022/04/09 05:57:54;;;;;;;2.90;0.77;;;23.20;99.90;;;;;;4969485;28;21403;-79
2022/04/09 06:00:22;;;;;;;4.82;0.70;;;23.30;99.90;;;;;;4975584;28;20109;-81
2022/04/09 06:02:49;;;;;;;2.78;1.85;;;23.40;99.90;;;;;;4984539;28;20038;-78
2022/04/09 06:05:16;;;;;;;1.25;0.68;;;23.40;99.90;;;;;;4993813;28;20033;-80
2022/04/09 06:07:44;;;;;;;3.03;0.57;;;23.40;99.90;;;;;;4978839;28;20118;-78
2022/04/09 06:10:14;;;;;;;2.70;0.70;;;23.50;99.90;;;;;;4979760;28;20054;-79
2022/04/09 06:12:41;;;;;;;3.63;0.90;;;23.40;99.90;;;;;;4980765;28;20041;-81
2022/04/09 06:15:09;;;;;;;1.50;0.38;;;23.40;99.90;;;;;;4986236;28;20026;-79
2022/04/09 06:17:37;;;;;;;2.38;0.68;;;23.40;99.90;;;;;;4974725;28;20042;-79
2022/04/09 06:20:07;;;;;;;0.95;0.40;;;23.40;99.90;;;;;;4983732;28;20069;-79
2022/04/09 06:22:34;;;;;;;3.28;0.50;;;23.30;99.90;;;;;;4982717;28;20041;-79
2022/04/09 06:25:02;;;;;;;5.88;1.30;;;23.30;99.90;;;;;;4988356;28;20061;-79
2022/04/09 06:27:32;;;;;;;2.67;0.77;;;23.30;99.90;;;;;;4972380;28;20049;-79
2022/04/09 06:30:03;;;;;;;4.57;0.57;;;23.20;99.90;;;;;;4975246;28;20062;-76
2022/04/09 06:32:30;;;;;;;5.90;0.70;;;23.10;99.90;;;;;;4991471;28;20074;-76
2022/04/09 06:34:57;;;;;;;2.92;0.32;;;23.10;99.90;;;;;;4986347;28;20038;-76
2022/04/09 06:37:26;;;;;;;2.42;0.50;;;22.90;99.90;;;;;;4990848;28;20036;-76
2022/04/09 06:39:53;;;;;;;5.13;0.50;;;22.70;99.90;;;;;;4989760;28;20137;-77
2022/04/09 06:42:21;;;;;;;3.35;0.43;;;22.00;99.90;;;;;;4981657;28;20110;-79
2022/04/09 06:44:51;;;;;;;7.60;2.00;;;21.10;99.90;;;;;;4989401;28;20038;-80
2022/04/09 06:47:19;;;;;;;5.45;0.85;;;20.50;99.90;;;;;;4982597;28;20394;-77
2022/04/09 06:49:46;;;;;;;6.43;1.30;;;20.20;99.90;;;;;;4984301;28;20054;-77
2022/04/09 06:52:15;;;;;;;2.88;0.40;;;20.00;99.90;;;;;;4985399;28;20041;-80
2022/04/09 06:54:43;;;;;;;6.18;1.50;;;19.90;99.90;;;;;;4986245;28;20143;-78
2022/04/09 06:57:10;;;;;;;4.78;1.15;;;19.90;99.90;;;;;;4974789;28;20045;-78
2022/04/09 06:59:38;;;;;;;5.65;0.95;;;19.90;99.90;;;;;;4976983;28;20035;-79
2022/04/09 07:02:05;;;;;;;3.03;0.60;;;19.90;99.90;;;;;;4973980;28;20469;-78
2022/04/09 07:04:32;;;;;;;3.55;0.50;;;19.90;99.90;;;;;;4972834;28;20046;-77
2022/04/09 07:07:00;;;;;;;2.70;1.30;;;19.90;99.90;;;;;;4983144;28;20041;-76
2022/04/09 07:09:27;;;;;;;3.45;0.47;;;20.00;99.90;;;;;;4975226;28;20037;-76
2022/04/09 07:11:55;;;;;;;3.08;0.40;;;20.00;99.90;;;;;;4974909;28;20031;-77
2022/04/09 07:14:22;;;;;;;3.67;0.80;;;19.90;99.90;;;;;;4972814;28;20038;-77
2022/04/09 07:16:50;;;;;;;2.63;0.45;;;20.00;99.90;;;;;;4977849;28;20035;-77
2022/04/09 07:19:17;;;;;;;2.53;0.60;;;20.00;99.90;;;;;;4975103;28;20054;-76
2022/04/09 07:21:48;;;;;;;7.38;1.55;;;20.00;99.90;;;;;;4972845;28;20027;-77
2022/04/09 07:24:15;;;;;;;4.40;0.88;;;20.10;99.90;;;;;;4979624;28;20464;-77
2022/04/09 07:26:43;;;;;;;2.38;1.02;;;20.10;99.90;;;;;;4988526;28;20114;-77
2022/04/09 07:29:11;;;;;;;3.58;1.20;;;20.10;99.90;;;;;;4971047;28;20034;-77
2022/04/09 07:31:38;;;;;;;4.32;0.70;;;20.10;99.90;;;;;;4968135;28;20388;-76
2022/04/09 07:34:06;;;;;;;4.50;1.15;;;20.20;99.90;;;;;;4968462;28;20227;-77
2022/04/09 07:36:33;;;;;;;3.90;1.52;;;20.20;99.90;;;;;;4972678;28;20034;-76
2022/04/09 07:39:06;;;;;;;3.15;0.80;;;20.20;99.90;;;;;;4972173;28;20043;-76
2022/04/09 07:41:33;;;;;;;3.33;0.55;;;20.30;99.90;;;;;;4969662;28;20079;-78
2022/04/09 07:44:00;;;;;;;4.35;0.80;;;20.30;99.90;;;;;;4972634;28;20062;-77
2022/04/09 07:46:28;;;;;;;3.65;0.80;;;20.30;99.90;;;;;;4972131;28;20035;-75
2022/04/09 07:48:55;;;;;;;5.65;1.30;;;20.30;99.90;;;;;;4970680;28;20482;-76
2022/04/09 07:51:22;;;;;;;2.60;0.60;;;20.40;99.90;;;;;;4974313;28;20114;-76
2022/04/09 07:53:50;;;;;;;2.88;1.80;;;20.40;99.90;;;;;;4987013;28;20429;-78
2022/04/09 07:56:17;;;;;;;5.10;1.38;;;20.40;99.90;;;;;;4989078;28;20026;-76
2022/04/09 07:58:45;;;;;;;6.57;1.42;;;20.30;99.90;;;;;;4977656;28;20022;-76
2022/04/09 08:01:13;;;;;;;5.40;1.63;;;20.30;99.90;;;;;;4972484;28;20042;-76
2022/04/09 08:03:41;;;;;;;3.90;1.85;;;20.30;99.90;;;;;;4975084;28;20493;-76
2022/04/09 08:06:08;;;;;;;3.17;1.48;;;20.40;99.90;;;;;;4971848;28;20038;-76
2022/04/09 08:08:36;;;;;;;2.63;1.02;;;20.40;99.90;;;;;;4985187;28;20034;-77
2022/04/09 08:11:04;;;;;;;2.63;1.15;;;20.40;99.90;;;;;;4989528;28;20038;-77
2022/04/09 08:13:31;;;;;;;5.32;1.17;;;20.40;99.90;;;;;;4976710;28;20062;-76
2022/04/09 08:15:59;;;;;;;8.00;2.72;;;20.40;99.90;;;;;;4979350;28;20038;-77
2022/04/09 08:18:26;;;;;;;4.78;1.77;;;20.40;99.90;;;;;;4982567;28;20034;-77
2022/04/09 08:20:54;;;;;;;5.75;1.13;;;20.40;99.90;;;;;;4974214;28;20388;-79
2022/04/09 08:23:21;;;;;;;5.72;1.58;;;20.40;99.90;;;;;;4979469;28;20034;-76
2022/04/09 08:25:49;;;;;;;4.13;1.20;;;20.40;99.90;;;;;;4972759;28;20053;-77
2022/04/09 08:28:17;;;;;;;1.92;0.80;;;20.30;99.90;;;;;;4986172;28;20058;-76
2022/04/09 08:30:44;;;;;;;3.78;1.58;;;20.30;99.90;;;;;;4988631;28;20031;-75
2022/04/09 08:33:15;;;;;;;6.20;1.65;;;20.20;99.90;;;;;;4974400;28;20058;-76
2022/04/09 08:35:43;;;;;;;5.00;0.93;;;20.20;99.90;;;;;;4969429;28;20104;-75
2022/04/09 08:38:12;;;;;;;7.15;1.40;;;20.20;99.90;;;;;;4969731;28;20852;-76
2022/04/09 08:40:40;;;;;;;6.15;0.93;;;20.30;99.90;;;;;;4971506;28;20042;-76
2022/04/09 08:43:08;;;;;;;4.57;0.88;;;20.30;99.90;;;;;;4971011;28;20022;-77
2022/04/09 08:45:41;;;;;;;5.25;1.38;;;20.20;99.90;;;;;;4970206;28;20035;-77
2022/04/09 08:48:10;;;;;;;4.75;1.67;;;20.30;99.90;;;;;;4969673;28;20050;-77
2022/04/09 08:50:42;;;;;;;4.80;1.92;;;20.30;99.90;;;;;;4973058;28;20034;-77
2022/04/09 08:53:09;;;;;;;3.92;1.25;;;20.20;99.90;;;;;;4972265;28;20443;-81
2022/04/09 08:55:38;;;;;;;3.67;0.98;;;20.30;99.90;;;;;;4968776;28;20022;-80
2022/04/09 08:58:05;;;;;;;4.78;1.33;;;20.30;99.90;;;;;;4970244;28;20031;-77
2022/04/09 09:00:33;;;;;;;1.60;1.00;;;20.30;99.90;;;;;;4970484;28;20037;-79
2022/04/09 09:03:05;;;;;;;3.33;0.70;;;20.20;99.90;;;;;;4967910;28;20081;-78
2022/04/09 09:05:52;;;;;;;2.40;0.65;;;20.30;99.90;;;;;;4971051;28;20035;-76
2022/04/09 09:08:43;;;;;;;3.13;1.00;;;20.20;99.90;;;;;;4974683;28;20027;-78
2022/04/09 09:11:10;;;;;;;6.57;0.85;;;20.10;99.90;;;;;;4973981;28;20456;-77
2022/04/09 09:13:51;;;;;;;2.38;0.75;;;19.90;99.90;;;;;;4973517;28;20027;-79
2022/04/09 09:16:37;;;;;;;2.45;0.65;;;20.00;99.90;;;;;;4981123;28;20512;-77
2022/04/09 09:19:07;;;;;;;3.10;2.03;;;19.90;99.90;;;;;;4974419;28;20030;-77
2022/04/09 09:21:34;;;;;;;5.97;2.88;;;19.90;99.90;;;;;;4986172;28;20027;-80
2022/04/09 09:24:20;;;;;;;6.15;2.55;;;19.90;99.90;;;;;;4986886;28;20086;-78
2022/04/09 09:27:01;;;;;;;4.47;1.37;;;19.90;99.90;;;;;;5002486;28;20042;-79
2022/04/09 09:29:31;;;;;;;4.10;1.15;;;19.90;99.90;;;;;;5000911;28;20083;-78
2022/04/09 09:32:00;;;;;;;2.72;1.10;;;19.90;99.90;;;;;;4985073;28;20026;-79
2022/04/09 09:34:29;;;;;;;2.20;0.98;;;19.90;99.90;;;;;;4974369;28;21232;-77
2022/04/09 09:36:56;;;;;;;2.35;1.40;;;19.90;99.90;;;;;;4973657;28;20474;-78
2022/04/09 09:39:25;;;;;;;3.55;0.73;;;19.90;99.90;;;;;;4974425;28;20061;-78
2022/04/09 09:42:03;;;;;;;5.85;1.00;;;19.90;99.90;;;;;;4975117;28;20122;-78
2022/04/09 09:44:34;;;;;;;5.70;0.77;;;19.80;99.90;;;;;;4974225;28;20026;-78
2022/04/09 09:47:20;;;;;;;2.10;0.98;;;19.80;99.90;;;;;;4974690;28;20035;-77
2022/04/09 09:49:55;;;;;;;4.82;1.27;;;19.80;99.90;;;;;;4974090;28;20042;-77
2022/04/09 09:52:31;;;;;;;1.83;1.02;;;19.80;99.90;;;;;;4974619;28;20026;-77
2022/04/09 09:55:25;;;;;;;4.55;1.35;;;19.80;99.90;;;;;;4991310;28;20041;-78
2022/04/09 09:57:54;;;;;;;3.67;0.88;;;19.80;99.90;;;;;;4970333;28;20073;-79
2022/04/09 10:00:22;;;;;;;2.65;0.93;;;19.70;99.90;;;;;;4975469;28;20035;-77
2022/04/09 10:02:50;;;;;;;3.55;1.35;;;19.70;99.90;;;;;;4974087;28;20088;-77
2022/04/09 10:05:23;;;;;;;5.10;1.25;;;19.70;99.90;;;;;;4972572;28;20050;-77
2022/04/09 10:07:50;;;;;;;10.00;2.53;;;19.70;99.90;;;;;;4974977;28;20397;-78
2022/04/09 10:10:18;;;;;;;5.95;1.40;;;19.60;99.90;;;;;;4971683;28;20034;-78
2022/04/09 10:12:47;;;;;;;4.07;1.20;;;19.60;99.90;;;;;;4970580;28;20058;-81
2022/04/09 10:15:16;;;;;;;2.63;0.90;;;19.50;99.90;;;;;;4971664;28;20031;-80
2022/04/09 10:17:44;;;;;;;4.00;0.77;;;19.50;99.90;;;;;;4972753;28;21788;-80
2022/04/09 10:20:12;;;;;;;3.13;1.58;;;19.50;99.90;;;;;;4971433;28;20100;-80
2022/04/09 10:22:45;;;;;;;6.03;0.90;;;19.40;99.90;;;;;;4972207;28;20060;-79
2022/04/09 10:25:18;;;;;;;3.83;0.82;;;19.40;99.90;;;;;;4974615;28;20027;-79
2022/04/09 10:27:53;;;;;;;5.40;1.02;;;19.40;99.90;;;;;;4973711;28;20038;-76
2022/04/09 10:30:28;;;;;;;5.88;1.10;;;19.30;99.90;;;;;;4970123;28;20049;-80
2022/04/09 10:32:59;;;;;;;3.03;0.90;;;19.30;99.90;;;;;;4969902;28;20050;-79
2022/04/09 10:35:39;;;;;;;1.95;0.70;;;19.30;99.90;;;;;;4973542;28;20521;-80
2022/04/09 10:38:15;;;;;;;4.32;1.10;;;19.30;99.90;;;;;;4971949;28;20080;-77
2022/04/09 10:41:00;;;;;;;2.53;0.80;;;19.30;99.90;;;;;;4972051;28;20026;-79
2022/04/09 10:43:28;;;;;;;1.98;0.70;;;19.30;99.90;;;;;;4973734;28;20034;-78
2022/04/09 10:46:02;;;;;;;4.20;1.40;;;19.20;99.90;;;;;;4974501;28;20125;-80
2022/04/09 10:48:31;;;;;;;2.53;0.55;;;19.30;99.90;;;;;;4973268;28;20089;-79
2022/04/09 10:51:15;;;;;;;2.08;0.90;;;19.30;99.90;;;;;;4971076;28;20081;-78
2022/04/09 10:53:51;;;;;;;3.17;1.13;;;19.30;99.90;;;;;;4975098;28;20110;-79
2022/04/09 10:56:25;;;;;;;1.58;0.75;;;19.30;99.90;;;;;;4974144;28;20043;-77
2022/04/09 10:59:15;;;;;;;7.15;1.08;;;19.30;99.90;;;;;;4972881;28;20030;-77
2022/04/09 11:01:54;;;;;;;2.70;0.82;;;19.30;99.90;;;;;;4971100;28;20389;-78
2022/04/09 11:04:45;;;;;;;3.63;1.02;;;19.30;99.90;;;;;;4973200;28;20044;-78
2022/04/09 11:07:15;;;;;;;4.22;0.95;;;19.20;99.90;;;;;;4973676;28;20046;-77
2022/04/09 11:09:43;;;;;;;2.45;0.77;;;19.20;99.90;;;;;;4972194;28;20022;-78
2022/04/09 11:12:14;;;;;;;1.98;1.05;;;19.10;99.90;;;;;;4972190;28;20371;-77
2022/04/09 11:14:52;;;;;;;3.38;1.33;;;19.00;99.90;;;;;;4970463;28;20037;-77
2022/04/09 11:17:40;;;;;;;3.03;1.10;;;18.90;99.90;;;;;;4984124;28;20039;-77
2022/04/09 11:20:26;;;;;;;3.33;1.27;;;18.90;99.90;;;;;;4972719;28;20034;-77
2022/04/09 11:22:56;;;;;;;5.97;1.58;;;18.80;99.90;;;;;;4985881;28;20117;-77
2022/04/09 11:25:25;;;;;;;3.63;1.30;;;18.80;99.90;;;;;;4984666;28;20046;-77
2022/04/09 11:28:05;;;;;;;2.72;1.30;;;18.70;99.90;;;;;;4973220;28;20382;-77
2022/04/09 11:30:33;;;;;;;7.25;1.00;;;18.60;99.90;;;;;;4971858;28;20042;-76
2022/04/09 11:33:01;;;;;;;8.23;1.45;;;18.50;99.90;;;;;;4971980;28;20251;-77
2022/04/09 11:35:34;;;;;;;2.13;0.93;;;18.50;99.90;;;;;;4972093;28;20144;-77
2022/04/09 11:38:09;;;;;;;2.90;1.27;;;18.50;99.90;;;;;;4970821;28;20027;-76
2022/04/09 11:40:42;;;;;;;2.80;1.00;;;18.40;99.90;;;;;;4970859;28;20494;-77
2022/04/09 11:43:10;;;;;;;6.28;1.50;;;18.40;99.90;;;;;;4976770;28;20130;-77
2022/04/09 11:45:37;;;;;;;2.65;1.10;;;18.40;99.90;;;;;;4972377;28;20118;-77
2022/04/09 11:48:05;;;;;;;3.08;1.80;;;18.40;99.90;;;;;;4987309;28;20034;-77
2022/04/09 11:50:34;;;;;;;3.50;1.05;;;18.40;99.90;;;;;;4979408;28;20152;-76
2022/04/09 11:53:20;;;;;;;3.83;1.25;;;18.30;99.90;;;;;;4987003;28;20037;-76
2022/04/09 11:55:57;;;;;;;6.05;1.08;;;18.30;99.90;;;;;;4982190;28;20046;-77
2022/04/09 11:58:32;;;;;;;2.60;1.52;;;18.30;99.90;;;;;;4981717;28;20520;-79
2022/04/09 12:00:59;;;;;;;4.00;1.20;;;18.30;99.90;;;;;;4971621;28;20121;-76
2022/04/09 12:03:27;;;;;;;7.07;2.22;;;18.30;99.90;;;;;;4982517;28;20074;-77
2022/04/09 12:05:56;;;;;;;1.98;1.13;;;18.20;99.90;;;;;;4972628;28;20045;-77
2022/04/09 12:08:24;;;;;;;2.15;1.17;;;18.20;99.90;;;;;;4977900;28;20548;-77
2022/04/09 12:11:11;;;;;;;3.28;1.50;;;18.20;99.90;;;;;;4971462;28;20074;-77
2022/04/09 12:13:39;;;;;;;6.25;1.58;;;18.20;99.90;;;;;;4974704;28;20042;-77
2022/04/09 12:16:16;;;;;;;2.75;1.67;;;18.20;99.90;;;;;;4971716;28;20109;-79
2022/04/09 12:18:49;;;;;;;5.13;2.13;;;18.20;99.90;;;;;;4984885;28;20093;-78
2022/04/09 12:21:27;;;;;;;8.00;1.70;;;18.30;99.90;;;;;;4971157;28;20026;-78
2022/04/09 12:24:10;;;;;;;2.10;1.27;;;18.30;99.90;;;;;;4981213;28;20554;-79
2022/04/09 12:26:38;;;;;;;5.45;1.92;;;18.30;99.90;;;;;;4971600;28;20041;-78
2022/04/09 12:29:18;;;;;;;5.47;1.77;;;18.40;99.90;;;;;;4970823;28;20050;-77
2022/04/09 12:31:53;;;;;;;2.80;1.55;;;18.40;99.90;;;;;;4971573;28;20478;-76
2022/04/09 12:34:52;;;;;;;3.85;1.42;;;18.40;99.90;;;;;;4971405;28;20081;-76
2022/04/09 12:37:24;;;;;;;7.25;2.55;;;18.40;99.90;;;;;;4973446;28;20073;-76
2022/04/09 12:39:52;;;;;;;4.90;2.17;;;18.40;99.90;;;;;;4979677;28;20030;-78
2022/04/09 12:42:32;;;;;;;7.65;1.38;;;18.40;99.90;;;;;;4972653;28;20035;-77
2022/04/09 12:45:24;;;;;;;2.95;1.48;;;18.40;99.90;;;;;;4970101;28;20385;-76
2022/04/09 12:48:10;;;;;;;3.85;1.95;;;18.50;99.90;;;;;;4983699;28;20431;-76
2022/04/09 12:50:37;;;;;;;3.67;1.80;;;18.40;99.90;;;;;;4971747;28;20485;-78
2022/04/09 12:53:07;;;;;;;4.82;1.42;;;18.40;99.90;;;;;;4973867;28;20057;-76
2022/04/09 12:55:35;;;;;;;5.90;2.00;;;18.40;99.90;;;;;;4982514;28;20069;-78
2022/04/09 12:58:03;;;;;;;2.55;1.25;;;18.40;99.90;;;;;;4972456;28;20023;-77
2022/04/09 13:00:33;;;;;;;2.92;1.25;;;18.30;99.90;;;;;;4973047;28;20107;-78
2022/04/09 13:03:03;;;;;;;3.53;1.33;;;18.30;99.90;;;;;;4978549;28;20038;-77
2022/04/09 13:05:32;;;;;;;4.88;1.83;;;18.30;99.90;;;;;;5006834;28;20058;-76
2022/04/09 13:07:59;;;;;;;3.63;1.90;;;18.30;99.90;;;;;;4994853;28;20031;-77